Archival Weather

Chicago O'Hare International

Chicago, Illinois (KORD)

Report from: Monday, December 26, 2022 11:51 AM CST
Current time: Friday, June 21, 2024 2:36 AM CDT

Current weather – Weather history – Daily summaries
Weather forecast

Present weatherLight snow
Temperature-6.7°C (19.9°F)
Wind chill-9.5°C (14.9°F)
Dew point-11.7°C (10.9°F)
Winds 3 kts (1.5 m/s, 3.5 mph) North (350°)
Visibility10 mi. (16.1 km)
Clouds Scattered clouds 3,000 ft. (914 m)
Ceiling: Overcast 5,000 ft. (1,524 m)
Altimeter30.15 in.Hg (1021 mB)
PrecipitiationTrace
Precip last 3 hours0.01 in. (0 mm)
Relative humidity67 %
Density altitude-2,953 ft. (-900 m)
Sea-level pressure102.2 kPa (1022 mB, 30.18 in.Hg)
Max temp last 6 hours-6.7°C (19.9°F)
Min temp last 6 hours-8.9°C (16.0°F)
Snow depth1.00 in. (25 mm)
Remarks System requires maintenance
Automated weather observing station with precipitation discriminator
Pressure rising, then falling
Flight conditions Visual Meteorological Conditions
Raw dataKORD 261751Z 35003KT 10SM -SN SCT030 OVC050 M07/M12 A3015 RMK AO2 SLP221 4/001 P0000 60001 T10671117 11067 21089 50004 $
An error has occurred. This application may no longer respond until reloaded. Reload 🗙